Time;durP1;ratioP1;P1;durP2;ratioP2;P2;SDS_P1;SDS_P2;PMS_P1;PMS_P2;Temp;Humidity;BMP_temperature;BMP_pressure;BME280_temperature;BME280_humidity;BME280_pressure;Samples;Min_cycle;Max_cycle;Signal;HPM_P1;HPM_P2
2024/03/09 05:00:38;;;;;;;3.20;3.00;;;1.10;97.30;;;;;;5966007;23;20410;-64
2024/03/09 05:03:04;;;;;;;5.63;4.53;;;1.10;97.30;;;;;;4974744;28;20476;-64
2024/03/09 05:05:31;;;;;;;17.10;3.07;;;1.10;97.30;;;;;;4993984;28;20178;-64
2024/03/09 05:07:56;;;;;;;2.90;2.70;;;1.10;97.30;;;;;;4990235;28;20420;-64
2024/03/09 05:10:23;;;;;;;3.00;2.80;;;1.00;97.30;;;;;;4987342;28;20457;-64
2024/03/09 05:12:56;;;;;;;2.80;2.60;;;1.00;97.30;;;;;;4952960;28;20640;-64
2024/03/09 05:15:24;;;;;;;1.70;1.60;;;1.00;97.30;;;;;;4952686;28;20509;-64
2024/03/09 05:17:50;;;;;;;2.27;1.83;;;1.00;97.30;;;;;;4951944;28;20839;-64
2024/03/09 05:20:22;;;;;;;1.93;1.83;;;1.00;97.30;;;;;;4950966;28;20438;-64
2024/03/09 05:22:57;;;;;;;2.53;2.33;;;1.00;97.30;;;;;;4971883;28;20425;-64
2024/03/09 05:25:23;;;;;;;11.30;5.47;;;1.00;97.30;;;;;;4970108;28;20429;-64
2024/03/09 05:27:57;;;;;;;4.23;3.03;;;1.00;97.30;;;;;;4952624;28;20480;-64
2024/03/09 05:30:30;;;;;;;6.93;3.23;;;1.00;97.30;;;;;;4954104;28;20472;-64
2024/03/09 05:32:57;;;;;;;1.83;1.73;;;1.00;97.30;;;;;;4970059;28;21106;-64
2024/03/09 05:35:28;;;;;;;2.70;2.50;;;1.00;97.30;;;;;;4970486;28;20414;-64
2024/03/09 05:37:54;;;;;;;9.97;4.37;;;1.00;97.30;;;;;;4970517;28;20432;-64
2024/03/09 05:40:21;;;;;;;4.20;2.50;;;1.00;97.30;;;;;;4952405;28;20433;-64
2024/03/09 05:42:50;;;;;;;11.83;2.93;;;1.00;97.30;;;;;;4954139;28;20437;-64
2024/03/09 05:45:20;;;;;;;2.83;2.63;;;1.10;97.30;;;;;;4970016;28;20432;-64
2024/03/09 05:47:47;;;;;;;3.00;2.80;;;1.10;97.30;;;;;;4967832;28;20517;-64
2024/03/09 05:50:16;;;;;;;8.10;2.07;;;1.10;97.30;;;;;;4971729;28;20461;-64
2024/03/09 05:52:44;;;;;;;4.33;3.30;;;1.10;97.30;;;;;;4952006;28;20523;-64
2024/03/09 05:55:10;;;;;;;2.60;1.90;;;1.10;97.30;;;;;;4952452;28;20485;-64
2024/03/09 05:57:35;;;;;;;2.60;2.40;;;1.10;97.30;;;;;;4950415;28;20851;-64
2024/03/09 06:00:01;;;;;;;12.40;2.90;;;1.10;97.30;;;;;;4951977;28;20432;-64
2024/03/09 06:02:29;;;;;;;3.40;3.23;;;1.10;97.30;;;;;;4940548;28;20527;-64
2024/03/09 06:04:54;;;;;;;7.60;3.43;;;1.20;97.30;;;;;;4947087;28;20699;-64
2024/03/09 06:07:20;;;;;;;9.43;4.70;;;1.20;97.30;;;;;;4945597;28;20442;-64
2024/03/09 06:09:46;;;;;;;5.17;3.30;;;1.20;97.30;;;;;;4948245;28;20215;-64
2024/03/09 06:12:15;;;;;;;7.20;2.93;;;1.20;97.30;;;;;;4945364;28;20617;-64
2024/03/09 06:14:44;;;;;;;3.03;2.90;;;1.20;97.30;;;;;;4949831;28;20466;-64
2024/03/09 06:17:10;;;;;;;2.13;1.97;;;1.30;97.30;;;;;;4950150;28;20414;-64
2024/03/09 06:19:36;;;;;;;8.83;3.63;;;1.30;97.30;;;;;;4950117;28;20525;-64
2024/03/09 06:22:01;;;;;;;2.83;2.20;;;1.30;97.30;;;;;;4948118;28;20578;-64
2024/03/09 06:24:30;;;;;;;3.33;3.00;;;1.30;97.30;;;;;;4945970;28;20222;-64
2024/03/09 06:26:57;;;;;;;2.80;2.60;;;1.30;97.30;;;;;;4944862;28;20190;-64
2024/03/09 06:29:23;;;;;;;2.63;2.20;;;1.30;97.30;;;;;;4948648;28;20598;-64
2024/03/09 06:31:49;;;;;;;4.00;2.63;;;1.40;97.30;;;;;;4947623;28;20954;-64
2024/03/09 06:34:15;;;;;;;3.10;2.90;;;1.40;97.30;;;;;;4947729;28;20477;-64
2024/03/09 06:36:41;;;;;;;3.10;2.70;;;1.40;97.30;;;;;;4949909;28;20187;-64
2024/03/09 06:39:06;;;;;;;3.07;2.87;;;1.50;97.30;;;;;;4944403;28;21155;-64
2024/03/09 06:41:32;;;;;;;2.20;1.90;;;1.40;97.30;;;;;;4949046;28;20203;-64
2024/03/09 06:43:57;;;;;;;1.80;1.70;;;1.50;97.30;;;;;;4957714;28;20190;-64
2024/03/09 06:46:23;;;;;;;4.17;2.43;;;1.50;97.30;;;;;;4951278;28;20190;-64
2024/03/09 06:48:51;;;;;;;9.90;2.60;;;1.50;97.30;;;;;;4957586;28;20186;-64
2024/03/09 06:51:19;;;;;;;8.23;4.80;;;1.60;97.30;;;;;;4948352;28;20203;-64
2024/03/09 06:53:45;;;;;;;5.87;3.53;;;1.70;97.30;;;;;;4950318;28;20529;-63
2024/03/09 06:56:11;;;;;;;10.00;3.47;;;1.70;97.30;;;;;;4948394;28;20506;-64
2024/03/09 06:58:36;;;;;;;6.23;3.33;;;1.80;97.30;;;;;;4951479;28;20186;-63
2024/03/09 07:01:03;;;;;;;11.20;4.47;;;1.90;97.30;;;;;;4949233;28;20231;-64
2024/03/09 07:03:29;;;;;;;13.63;6.37;;;1.90;97.30;;;;;;4951059;28;20550;-64
2024/03/09 07:05:54;;;;;;;14.90;5.63;;;2.00;97.30;;;;;;4950002;28;20450;-64
2024/03/09 07:08:21;;;;;;;6.73;3.80;;;2.00;97.30;;;;;;4954372;28;20188;-64
2024/03/09 07:10:47;;;;;;;6.73;2.27;;;2.10;97.30;;;;;;4948238;28;20750;-64
2024/03/09 07:13:12;;;;;;;3.90;3.30;;;2.10;97.30;;;;;;4956802;28;20502;-64
2024/03/09 07:15:38;;;;;;;8.37;5.77;;;2.10;97.30;;;;;;4960051;28;20501;-64
2024/03/09 07:18:03;;;;;;;7.77;4.03;;;2.20;97.30;;;;;;4951820;28;20275;-63
2024/03/09 07:20:32;;;;;;;12.50;5.97;;;2.20;97.30;;;;;;4953781;28;20567;-64
2024/03/09 07:22:57;;;;;;;11.63;4.67;;;2.20;97.30;;;;;;4966010;28;20282;-64
2024/03/09 07:25:25;;;;;;;9.43;3.50;;;2.30;97.30;;;;;;4953623;28;20507;-64
2024/03/09 07:27:52;;;;;;;9.57;5.77;;;2.40;97.30;;;;;;4954095;28;20269;-64
2024/03/09 07:30:18;;;;;;;6.20;2.93;;;2.40;97.30;;;;;;4964329;28;20480;-64
2024/03/09 07:32:48;;;;;;;6.47;4.13;;;2.50;97.30;;;;;;4953715;28;20430;-63
2024/03/09 07:35:15;;;;;;;5.13;4.60;;;2.60;97.30;;;;;;4958964;28;20789;-63
2024/03/09 07:37:52;;;;;;;10.60;4.80;;;2.60;97.30;;;;;;4948236;28;20440;-63
2024/03/09 07:40:21;;;;;;;3.33;3.13;;;2.70;97.30;;;;;;4952900;28;20419;-63
2024/03/09 07:42:48;;;;;;;8.03;2.97;;;2.80;97.30;;;;;;4952950;28;20510;-63
2024/03/09 07:45:14;;;;;;;8.43;2.70;;;2.90;97.30;;;;;;4953104;28;20430;-63
2024/03/09 07:47:41;;;;;;;3.40;3.20;;;2.90;97.30;;;;;;4953005;28;20423;-63
2024/03/09 07:50:14;;;;;;;12.40;5.33;;;3.00;97.30;;;;;;4953411;28;20450;-63
2024/03/09 07:52:43;;;;;;;9.87;6.77;;;3.10;97.30;;;;;;4950959;28;20514;-63
2024/03/09 07:55:10;;;;;;;1.83;1.77;;;3.20;97.30;;;;;;4951502;28;20958;-63
2024/03/09 07:57:37;;;;;;;4.50;2.50;;;3.30;97.30;;;;;;4953786;28;20777;-63
2024/03/09 08:00:04;;;;;;;5.40;5.10;;;3.40;97.30;;;;;;4952762;28;20415;-63
2024/03/09 08:02:32;;;;;;;5.70;2.70;;;3.50;97.30;;;;;;4970047;28;20478;-63
2024/03/09 08:05:02;;;;;;;5.67;3.40;;;3.70;97.30;;;;;;4971645;28;20409;-63
2024/03/09 08:07:29;;;;;;;2.93;2.73;;;3.90;97.30;;;;;;4954672;28;20471;-63
2024/03/09 08:09:54;;;;;;;3.17;2.60;;;4.10;97.30;;;;;;4971911;28;20973;-64
2024/03/09 08:12:20;;;;;;;2.70;2.50;;;4.20;97.30;;;;;;4954170;28;20461;-64
2024/03/09 08:14:46;;;;;;;4.37;3.47;;;4.30;97.30;;;;;;4971653;28;20188;-64
2024/03/09 08:17:14;;;;;;;8.30;2.93;;;4.40;97.30;;;;;;4971558;28;20682;-63
2024/03/09 08:19:40;;;;;;;3.40;2.90;;;4.50;97.30;;;;;;4972698;28;20430;-63
2024/03/09 08:22:05;;;;;;;4.53;3.77;;;4.60;97.30;;;;;;4971408;28;20445;-63
2024/03/09 08:24:31;;;;;;;9.00;3.97;;;4.70;97.30;;;;;;4953911;28;20175;-63
2024/03/09 08:26:57;;;;;;;6.60;3.93;;;4.80;97.30;;;;;;4970308;28;20182;-63
2024/03/09 08:29:22;;;;;;;5.17;3.23;;;4.90;97.30;;;;;;4971145;28;20513;-63
2024/03/09 08:31:48;;;;;;;5.27;4.20;;;5.00;97.30;;;;;;4971064;28;20210;-63
2024/03/09 08:34:14;;;;;;;3.27;3.07;;;5.10;97.30;;;;;;4971734;28;20170;-64
2024/03/09 08:36:40;;;;;;;4.10;3.20;;;5.30;97.30;;;;;;4953828;28;20666;-63
2024/03/09 08:39:05;;;;;;;6.03;3.57;;;5.40;97.30;;;;;;4971555;28;20516;-63
2024/03/09 08:41:32;;;;;;;5.63;4.50;;;5.60;97.30;;;;;;4970456;28;20334;-63
2024/03/09 08:43:58;;;;;;;3.77;3.30;;;5.80;97.30;;;;;;4953504;28;20674;-63
2024/03/09 08:46:26;;;;;;;6.60;3.97;;;5.90;97.30;;;;;;4970907;28;20433;-63
2024/03/09 08:48:51;;;;;;;12.97;5.03;;;6.10;97.30;;;;;;4970568;28;20783;-63
2024/03/09 08:51:20;;;;;;;3.70;3.53;;;6.20;97.30;;;;;;4953089;28;20554;-63
2024/03/09 08:53:45;;;;;;;3.70;2.03;;;6.40;97.30;;;;;;4970830;28;20550;-63
2024/03/09 08:56:11;;;;;;;4.47;4.17;;;6.50;97.30;;;;;;4953026;28;20433;-63
2024/03/09 08:58:38;;;;;;;6.93;4.73;;;6.70;97.30;;;;;;4952562;28;20245;-63
2024/03/09 09:01:04;;;;;;;11.40;6.63;;;6.80;97.30;;;;;;4960588;28;20651;-63
2024/03/09 09:03:30;;;;;;;4.50;3.50;;;6.90;97.30;;;;;;4952562;28;20414;-63
2024/03/09 09:05:56;;;;;;;4.00;3.17;;;7.10;97.30;;;;;;4951868;28;20489;-63
2024/03/09 09:08:28;;;;;;;7.20;4.27;;;7.10;97.30;;;;;;4950770;28;20941;-63
2024/03/09 09:10:54;;;;;;;6.77;3.47;;;7.10;97.30;;;;;;4952497;28;20225;-63
2024/03/09 09:13:23;;;;;;;12.00;6.70;;;7.30;97.30;;;;;;4964772;28;20451;-63
2024/03/09 09:15:48;;;;;;;6.57;4.33;;;7.30;97.30;;;;;;4961259;28;20429;-63
2024/03/09 09:18:15;;;;;;;6.20;4.77;;;7.50;97.30;;;;;;4959158;28;20426;-63
2024/03/09 09:20:41;;;;;;;3.90;3.70;;;7.70;97.30;;;;;;4968673;28;20466;-63
2024/03/09 09:23:10;;;;;;;6.80;3.43;;;7.80;97.30;;;;;;4964080;28;20471;-63
2024/03/09 09:25:41;;;;;;;5.60;2.40;;;8.00;97.30;;;;;;5001673;23;20500;-83
2024/03/09 09:28:09;;;;;;;3.03;2.50;;;8.10;97.30;;;;;;4984795;28;20413;-83
2024/03/09 09:30:40;;;;;;;4.47;4.17;;;8.20;97.30;;;;;;4974089;28;20454;-82
2024/03/09 09:33:14;;;;;;;11.10;4.10;;;8.30;97.30;;;;;;4974046;28;20409;-83
2024/03/09 09:35:42;;;;;;;8.13;4.17;;;8.40;97.30;;;;;;4969296;28;20936;-82
2024/03/09 09:38:08;;;;;;;2.23;2.03;;;8.50;97.30;;;;;;4947627;28;20468;-83
2024/03/09 09:40:33;;;;;;;6.90;4.17;;;8.70;97.30;;;;;;4972254;28;20421;-83
2024/03/09 09:43:02;;;;;;;8.27;4.77;;;8.90;97.30;;;;;;4957535;28;20558;-83
2024/03/09 09:45:33;;;;;;;4.43;4.13;;;9.00;97.30;;;;;;4951256;28;20587;-83
2024/03/09 09:47:59;;;;;;;3.60;3.03;;;9.20;97.30;;;;;;4951858;28;20427;-84
2024/03/09 09:50:26;;;;;;;10.03;4.13;;;9.30;97.30;;;;;;4943675;28;20465;-84
2024/03/09 09:52:54;;;;;;;4.70;3.27;;;9.50;97.30;;;;;;4946355;28;20244;-83
2024/03/09 09:55:20;;;;;;;5.53;4.00;;;9.60;97.30;;;;;;4948815;28;20541;-83
2024/03/09 09:57:46;;;;;;;10.33;6.00;;;9.60;97.30;;;;;;4944969;28;20454;-83
2024/03/09 10:00:13;;;;;;;4.73;3.80;;;9.70;97.30;;;;;;4954722;28;20190;-83
2024/03/09 10:02:39;;;;;;;8.93;6.20;;;9.60;97.30;;;;;;4954383;28;20269;-83
2024/03/09 10:05:15;;;;;;;4.53;3.83;;;9.70;97.30;;;;;;4964462;28;20781;-84
2024/03/09 10:08:02;;;;;;;3.70;3.50;;;9.90;97.30;;;;;;4954324;28;20457;-83
2024/03/09 10:10:30;;;;;;;16.47;4.40;;;9.80;97.30;;;;;;4971708;28;20886;-83
2024/03/09 10:13:11;;;;;;;5.87;4.07;;;9.90;97.30;;;;;;4944869;28;20437;-84
2024/03/09 10:15:40;;;;;;;5.00;4.63;;;10.10;97.30;;;;;;4944009;28;20438;-83
2024/03/09 10:18:07;;;;;;;8.23;4.20;;;10.10;97.30;;;;;;4953786;28;20561;-83
2024/03/09 10:20:35;;;;;;;5.70;4.83;;;10.20;97.30;;;;;;4946496;28;20453;-83
2024/03/09 10:23:13;;;;;;;13.50;5.80;;;10.40;96.90;;;;;;4945577;28;20464;-84
2024/03/09 10:25:42;;;;;;;13.13;4.03;;;10.50;96.60;;;;;;4946378;28;20541;-83
2024/03/09 10:28:10;;;;;;;8.37;3.60;;;10.60;96.90;;;;;;4967736;28;20427;-83
2024/03/09 10:30:40;;;;;;;5.17;3.80;;;10.60;95.70;;;;;;4936825;28;20502;-82
2024/03/09 10:33:09;;;;;;;4.77;3.50;;;10.70;94.90;;;;;;4971496;28;20421;-83
2024/03/09 10:35:40;;;;;;;8.03;4.80;;;10.80;94.10;;;;;;4957594;28;20465;-83
2024/03/09 10:38:08;;;;;;;5.03;3.63;;;11.10;94.40;;;;;;4955204;28;20411;-83
2024/03/09 10:40:34;;;;;;;5.23;4.80;;;11.30;93.50;;;;;;4943990;28;20486;-83
2024/03/09 10:43:01;;;;;;;4.67;3.37;;;11.60;91.60;;;;;;4953235;28;20414;-83
2024/03/09 10:45:33;;;;;;;4.97;3.83;;;11.80;89.80;;;;;;4965382;28;20435;-83
2024/03/09 10:48:05;;;;;;;9.70;3.83;;;11.70;88.50;;;;;;4952457;28;20419;-83
2024/03/09 10:50:37;;;;;;;6.50;5.97;;;11.60;88.50;;;;;;4970053;28;20460;-84
2024/03/09 10:53:09;;;;;;;3.30;2.10;;;11.60;89.30;;;;;;4953067;28;20418;-82
2024/03/09 10:56:04;;;;;;;11.20;6.07;;;11.80;89.40;;;;;;4970584;28;20464;-83
2024/03/09 10:58:32;;;;;;;3.97;2.67;;;12.00;88.80;;;;;;4962621;28;20465;-83
2024/03/09 11:00:59;;;;;;;8.43;3.80;;;12.20;88.50;;;;;;4948397;28;20422;-83
2024/03/09 11:03:26;;;;;;;5.63;3.97;;;12.20;87.70;;;;;;4961563;28;20425;-83
2024/03/09 11:05:53;;;;;;;2.87;2.67;;;12.10;87.30;;;;;;4953728;28;20923;-83
2024/03/09 11:08:20;;;;;;;5.10;4.40;;;12.00;87.30;;;;;;4953561;28;20462;-85
2024/03/09 11:10:46;;;;;;;11.57;5.00;;;12.10;87.30;;;;;;4951938;28;20454;-83
2024/03/09 11:13:13;;;;;;;11.70;3.50;;;12.20;86.70;;;;;;4957530;28;20916;-84
2024/03/09 11:15:40;;;;;;;7.37;3.50;;;12.20;86.70;;;;;;4950877;28;20530;-83
2024/03/09 11:18:11;;;;;;;8.10;3.40;;;12.30;87.90;;;;;;4954216;28;20411;-84
2024/03/09 11:20:47;;;;;;;7.60;4.93;;;12.40;86.70;;;;;;4954305;28;20441;-85
2024/03/09 11:23:13;;;;;;;3.10;2.90;;;12.60;87.30;;;;;;4944512;28;20508;-85
2024/03/09 11:25:51;;;;;;;11.63;3.47;;;12.70;85.20;;;;;;4956840;28;20561;-83
2024/03/09 11:28:22;;;;;;;3.13;2.93;;;12.90;85.20;;;;;;4967618;28;20261;-83
2024/03/09 11:31:14;;;;;;;12.07;5.00;;;12.60;84.10;;;;;;4974735;28;20561;-84
2024/03/09 11:33:53;;;;;;;4.60;3.03;;;12.70;86.20;;;;;;4979250;28;20424;-84
2024/03/09 11:36:51;;;;;;;3.73;3.40;;;13.00;85.70;;;;;;4963850;28;20972;-84
2024/03/09 11:39:28;;;;;;;4.13;3.90;;;13.10;84.00;;;;;;4949799;28;20501;-84
2024/03/09 11:41:57;;;;;;;9.53;2.70;;;13.20;85.80;;;;;;4956216;28;20429;-84
2024/03/09 11:44:26;;;;;;;2.43;2.23;;;13.30;85.90;;;;;;4956633;28;20477;-84
2024/03/09 11:46:52;;;;;;;3.40;2.97;;;13.50;85.40;;;;;;4949381;28;20423;-84
2024/03/09 11:49:18;;;;;;;3.83;2.80;;;13.60;84.10;;;;;;4947015;28;20461;-84
2024/03/09 11:51:44;;;;;;;11.17;5.60;;;13.60;84.20;;;;;;4954226;28;20210;-84
2024/03/09 11:54:11;;;;;;;3.43;2.57;;;13.60;83.60;;;;;;4970565;28;20194;-83
2024/03/09 11:56:38;;;;;;;10.20;4.33;;;13.70;83.90;;;;;;4939103;28;20441;-84
2024/03/09 11:59:07;;;;;;;4.10;2.20;;;13.70;82.30;;;;;;4947977;28;20422;-84
2024/03/09 12:01:39;;;;;;;8.57;3.67;;;13.50;82.70;;;;;;4945687;28;20453;-83
2024/03/09 12:04:06;;;;;;;10.53;2.80;;;13.50;82.90;;;;;;4970783;28;20426;-84
2024/03/09 12:06:32;;;;;;;6.03;4.37;;;13.60;82.10;;;;;;4948677;28;20422;-84
2024/03/09 12:08:58;;;;;;;7.27;3.07;;;13.70;82.00;;;;;;4955694;28;20426;-83
2024/03/09 12:11:29;;;;;;;10.43;4.53;;;14.00;83.40;;;;;;4951725;28;20179;-84
2024/03/09 12:13:56;;;;;;;7.03;3.10;;;14.00;81.30;;;;;;4955183;28;20426;-84
2024/03/09 12:16:24;;;;;;;2.97;2.83;;;14.10;81.50;;;;;;4973941;28;20426;-84
2024/03/09 12:18:50;;;;;;;5.43;3.43;;;14.30;82.70;;;;;;4950006;28;20923;-84
2024/03/09 12:21:17;;;;;;;14.47;4.60;;;14.50;82.30;;;;;;4956205;28;20426;-83
2024/03/09 12:23:47;;;;;;;2.97;2.43;;;14.80;82.40;;;;;;4949755;28;20504;-84
2024/03/09 12:26:13;;;;;;;10.17;4.00;;;14.80;80.80;;;;;;4947959;28;20501;-84
2024/03/09 12:28:42;;;;;;;4.93;3.03;;;14.80;80.20;;;;;;4949891;28;20479;-84
2024/03/09 12:31:09;;;;;;;13.43;3.77;;;14.70;80.70;;;;;;4947203;28;20210;-83
2024/03/09 12:33:37;;;;;;;4.90;3.20;;;14.60;79.80;;;;;;4946565;28;20433;-84
2024/03/09 12:36:03;;;;;;;6.90;3.40;;;14.80;81.00;;;;;;4949836;28;20816;-84
2024/03/09 12:38:29;;;;;;;5.23;2.63;;;14.90;81.50;;;;;;4949854;28;20505;-84
2024/03/09 12:40:54;;;;;;;5.23;2.77;;;14.80;79.40;;;;;;4973036;28;20521;-84
2024/03/09 12:43:23;;;;;;;13.97;3.80;;;14.20;80.70;;;;;;4945699;28;20187;-84
2024/03/09 12:45:53;;;;;;;4.57;4.17;;;14.10;81.50;;;;;;4942213;28;20213;-84
2024/03/09 12:48:23;;;;;;;4.60;2.07;;;13.80;80.90;;;;;;4946405;28;20423;-84
2024/03/09 12:50:53;;;;;;;3.30;2.77;;;14.00;82.60;;;;;;4954654;28;20812;-84
2024/03/09 12:53:21;;;;;;;6.03;4.07;;;14.40;81.30;;;;;;4952881;28;20497;-84
2024/03/09 12:55:49;;;;;;;2.30;2.10;;;14.70;81.20;;;;;;4941733;28;20438;-84
2024/03/09 12:58:17;;;;;;;4.63;2.80;;;14.60;79.00;;;;;;4950829;28;20419;-85
2024/03/09 13:00:46;;;;;;;9.33;4.83;;;14.80;80.00;;;;;;4952934;28;20426;-84
2024/03/09 13:03:12;;;;;;;4.97;2.40;;;14.80;79.60;;;;;;4949195;28;20456;-84
2024/03/09 13:05:38;;;;;;;5.20;3.43;;;15.00;80.80;;;;;;4955112;28;20469;-84
2024/03/09 13:08:07;;;;;;;9.80;3.73;;;15.30;80.60;;;;;;4965421;28;20912;-84
2024/03/09 13:10:36;;;;;;;2.60;2.43;;;15.60;79.40;;;;;;4940280;28;20451;-84
2024/03/09 13:13:05;;;;;;;8.37;5.00;;;15.80;78.70;;;;;;4945908;28;20778;-84
2024/03/09 13:15:31;;;;;;;7.50;3.70;;;16.00;77.90;;;;;;4950849;28;20987;-84
2024/03/09 13:17:58;;;;;;;6.80;3.37;;;16.00;77.70;;;;;;4953896;28;20422;-84
2024/03/09 13:20:31;;;;;;;2.83;2.63;;;15.90;76.60;;;;;;4946877;28;20438;-83
2024/03/09 13:23:01;;;;;;;5.27;5.00;;;16.00;77.10;;;;;;4948919;28;20571;-84
2024/03/09 13:25:31;;;;;;;10.60;5.47;;;16.20;78.10;;;;;;4960565;28;20474;-84
2024/03/09 13:27:59;;;;;;;8.40;3.50;;;15.70;77.40;;;;;;4954469;28;20794;-84
2024/03/09 13:30:27;;;;;;;4.80;4.50;;;15.50;78.50;;;;;;4950139;28;20508;-84
2024/03/09 13:32:55;;;;;;;6.03;3.73;;;15.60;78.30;;;;;;4972340;28;20765;-84
2024/03/09 13:35:21;;;;;;;5.63;3.00;;;15.50;78.20;;;;;;4945901;28;20531;-84
2024/03/09 13:37:47;;;;;;;4.70;3.00;;;14.90;78.60;;;;;;4964259;28;20446;-84
2024/03/09 13:40:13;;;;;;;4.40;3.70;;;14.80;80.10;;;;;;4954584;28;20438;-84
2024/03/09 13:42:39;;;;;;;3.73;2.70;;;15.10;80.10;;;;;;4944969;28;20478;-83
2024/03/09 13:45:09;;;;;;;3.60;3.47;;;15.30;79.70;;;;;;4954696;28;20453;-84
2024/03/09 13:47:38;;;;;;;7.97;3.90;;;15.10;78.40;;;;;;4968370;28;20432;-84
2024/03/09 13:50:07;;;;;;;4.23;3.23;;;15.50;79.10;;;;;;4972122;28;20467;-84
2024/03/09 13:52:33;;;;;;;3.13;2.90;;;15.90;79.00;;;;;;4964512;28;20440;-84
2024/03/09 13:54:58;;;;;;;8.23;2.60;;;16.50;78.20;;;;;;4958258;28;20528;-84
2024/03/09 13:57:25;;;;;;;8.67;5.20;;;16.80;77.00;;;;;;4949889;28;20765;-84
2024/03/09 13:59:51;;;;;;;3.27;2.90;;;17.00;76.00;;;;;;4972062;28;20174;-84
2024/03/09 14:02:19;;;;;;;6.67;3.30;;;17.10;75.20;;;;;;4965185;28;20430;-85
2024/03/09 14:04:47;;;;;;;3.47;2.57;;;16.90;74.40;;;;;;4971999;28;20450;-84
2024/03/09 14:07:14;;;;;;;3.73;3.47;;;16.90;74.40;;;;;;4965203;28;20436;-84
2024/03/09 14:09:48;;;;;;;4.23;3.90;;;16.80;74.20;;;;;;4950940;28;20516;-84
2024/03/09 14:12:21;;;;;;;7.47;5.07;;;16.80;75.70;;;;;;4971672;28;20807;-84
2024/03/09 14:14:56;;;;;;;6.50;3.80;;;17.20;75.20;;;;;;4967408;28;20472;-84
2024/03/09 14:17:22;;;;;;;6.53;3.73;;;17.20;74.80;;;;;;4963248;28;20470;-84
2024/03/09 14:19:50;;;;;;;4.20;3.13;;;17.00;74.50;;;;;;4968340;28;20505;-84
2024/03/09 14:22:17;;;;;;;7.67;3.87;;;17.10;75.00;;;;;;4974558;28;20738;-84
2024/03/09 14:24:46;;;;;;;7.50;3.13;;;17.20;74.00;;;;;;4962824;28;20820;-84
2024/03/09 14:27:18;;;;;;;4.80;3.67;;;16.90;74.50;;;;;;4971426;28;20845;-84
2024/03/09 14:29:48;;;;;;;3.43;3.30;;;16.50;74.40;;;;;;4971930;28;20971;-84
2024/03/09 14:32:17;;;;;;;3.00;2.30;;;16.40;75.70;;;;;;4972359;28;20421;-84
2024/03/09 14:34:48;;;;;;;9.57;4.33;;;16.30;75.70;;;;;;4955067;28;20951;-84
2024/03/09 14:37:14;;;;;;;8.63;5.23;;;16.20;76.10;;;;;;4966172;28;20468;-84
2024/03/09 14:39:43;;;;;;;21.93;4.50;;;16.20;76.80;;;;;;4969021;28;20421;-84
2024/03/09 14:42:12;;;;;;;4.60;2.73;;;15.30;77.20;;;;;;4954353;28;20429;-84
2024/03/09 14:44:38;;;;;;;4.50;3.30;;;15.30;77.50;;;;;;4950186;28;20450;-83
2024/03/09 14:47:08;;;;;;;6.00;3.07;;;15.20;78.00;;;;;;4954598;28;20966;-84
2024/03/09 14:49:34;;;;;;;3.80;3.20;;;15.30;78.40;;;;;;4952805;28;20843;-84
2024/03/09 14:52:00;;;;;;;7.40;3.93;;;15.60;78.50;;;;;;4951271;28;20418;-85
2024/03/09 14:54:25;;;;;;;11.80;3.60;;;15.90;77.50;;;;;;4957948;28;20454;-83
2024/03/09 14:56:51;;;;;;;4.47;2.60;;;16.10;77.10;;;;;;4957216;28;20192;-83
2024/03/09 14:59:17;;;;;;;4.80;2.00;;;16.40;77.10;;;;;;4956429;28;20183;-85
2024/03/09 15:01:43;;;;;;;6.67;2.67;;;16.20;76.70;;;;;;4954954;28;20437;-84
2024/03/09 15:04:09;;;;;;;3.97;3.47;;;16.50;77.50;;;;;;4968477;28;20186;-84
2024/03/09 15:06:40;;;;;;;5.33;3.40;;;16.80;76.70;;;;;;4987014;28;20425;-84
2024/03/09 15:09:20;;;;;;;4.00;2.67;;;16.80;76.30;;;;;;4984319;28;20197;-84
2024/03/09 15:11:46;;;;;;;2.83;2.20;;;16.80;75.70;;;;;;4988590;28;20435;-84
2024/03/09 15:14:11;;;;;;;3.57;3.37;;;16.60;76.20;;;;;;4982602;28;20429;-84
2024/03/09 15:16:37;;;;;;;5.80;3.77;;;16.60;75.60;;;;;;4980174;28;20410;-85
2024/03/09 15:19:03;;;;;;;6.97;4.60;;;16.30;76.40;;;;;;4978756;28;20545;-83
2024/03/09 15:21:29;;;;;;;5.53;3.67;;;16.40;76.90;;;;;;4994068;28;20489;-84
2024/03/09 15:23:58;;;;;;;7.00;3.63;;;16.30;76.80;;;;;;4986868;28;20984;-84
2024/03/09 15:26:24;;;;;;;3.30;2.73;;;16.30;76.40;;;;;;4968367;28;20265;-83
2024/03/09 15:28:50;;;;;;;4.60;3.20;;;16.10;76.80;;;;;;4970005;28;20432;-84
2024/03/09 15:31:16;;;;;;;15.57;4.50;;;16.10;77.30;;;;;;4969406;28;20461;-85
2024/03/09 15:33:42;;;;;;;7.77;3.80;;;16.20;77.80;;;;;;4965379;28;20272;-85
2024/03/09 15:36:12;;;;;;;6.73;4.07;;;16.20;77.40;;;;;;4971285;28;20527;-83
2024/03/09 15:38:40;;;;;;;6.80;3.93;;;16.00;77.60;;;;;;4974197;28;20419;-83
2024/03/09 15:41:06;;;;;;;5.37;3.70;;;16.30;77.80;;;;;;4992870;28;20517;-84
2024/03/09 15:43:33;;;;;;;7.17;2.60;;;16.50;77.20;;;;;;4960951;28;20430;-84
2024/03/09 15:46:00;;;;;;;6.67;3.27;;;16.70;76.40;;;;;;4974945;28;20536;-83
2024/03/09 15:48:26;;;;;;;5.80;3.70;;;16.70;76.20;;;;;;4985832;28;20432;-84
2024/03/09 15:50:52;;;;;;;5.60;3.23;;;16.60;75.90;;;;;;4969964;28;20461;-83
2024/03/09 15:53:17;;;;;;;3.33;3.10;;;16.50;76.60;;;;;;4971466;28;20713;-84
2024/03/09 15:55:44;;;;;;;8.40;4.90;;;16.80;76.30;;;;;;4975533;28;20225;-84
2024/03/09 15:58:09;;;;;;;7.53;4.20;;;17.00;75.90;;;;;;4988472;28;20190;-84
2024/03/09 16:00:41;;;;;;;17.13;5.30;;;17.40;75.70;;;;;;4971406;28;20480;-83
2024/03/09 16:03:09;;;;;;;5.07;3.03;;;17.50;74.80;;;;;;4981475;28;20178;-83
2024/03/09 16:05:36;;;;;;;7.57;4.93;;;17.20;75.10;;;;;;4977390;28;20546;-84
2024/03/09 16:08:02;;;;;;;5.10;4.63;;;17.30;75.20;;;;;;4967305;28;20428;-84
2024/03/09 16:10:30;;;;;;;5.90;4.53;;;17.40;75.20;;;;;;4972089;28;20494;-83
2024/03/09 16:12:57;;;;;;;5.10;3.97;;;17.50;75.10;;;;;;4975306;28;20847;-83
2024/03/09 16:15:26;;;;;;;4.47;4.20;;;17.30;75.20;;;;;;4961028;28;20531;-84
2024/03/09 16:17:59;;;;;;;5.00;4.00;;;17.10;75.50;;;;;;4962224;28;20427;-84
2024/03/09 16:20:31;;;;;;;18.13;2.90;;;16.70;76.30;;;;;;4949345;28;20418;-84
2024/03/09 16:23:01;;;;;;;10.33;4.73;;;15.70;78.10;;;;;;4955807;28;20493;-85
2024/03/09 16:25:29;;;;;;;11.07;5.47;;;14.90;80.00;;;;;;4983960;28;20472;-83
2024/03/09 16:28:10;;;;;;;7.67;3.83;;;14.10;82.20;;;;;;4970834;28;20449;-83
2024/03/09 16:30:38;;;;;;;3.50;3.30;;;13.60;83.60;;;;;;4967331;28;20484;-83
2024/03/09 16:33:09;;;;;;;4.67;2.03;;;13.00;85.30;;;;;;4967559;28;20432;-84
2024/03/09 16:35:47;;;;;;;6.20;3.60;;;12.70;86.40;;;;;;4967731;28;20429;-83
2024/03/09 16:38:13;;;;;;;6.30;5.47;;;12.30;87.50;;;;;;4963600;28;20793;-84
2024/03/09 16:40:39;;;;;;;4.63;4.10;;;12.00;88.30;;;;;;4966739;28;20432;-83
2024/03/09 16:43:08;;;;;;;4.70;3.63;;;11.90;88.90;;;;;;4963423;28;20453;-83
2024/03/09 16:45:34;;;;;;;8.17;3.93;;;11.80;89.10;;;;;;4963363;28;20521;-84
2024/03/09 16:47:59;;;;;;;5.57;3.03;;;11.60;89.60;;;;;;4965658;28;20513;-84
2024/03/09 16:50:26;;;;;;;12.90;4.93;;;11.50;90.20;;;;;;4974298;28;20194;-83
2024/03/09 16:52:54;;;;;;;6.10;5.27;;;11.40;90.40;;;;;;4965216;28;20183;-83
2024/03/09 16:55:20;;;;;;;13.23;7.60;;;11.20;90.80;;;;;;4959430;28;20452;-83
2024/03/09 16:57:46;;;;;;;10.03;4.90;;;11.10;91.40;;;;;;4967849;28;20466;-84
2024/03/09 17:00:20;;;;;;;17.10;5.97;;;11.00;91.70;;;;;;4974233;28;20459;-83
2024/03/09 17:02:51;;;;;;;5.40;4.43;;;10.90;92.60;;;;;;4968257;28;20179;-83
2024/03/09 17:05:18;;;;;;;4.50;3.80;;;10.70;93.30;;;;;;4988300;28;20436;-83
2024/03/09 17:07:44;;;;;;;4.20;3.50;;;10.60;93.90;;;;;;4965989;28;20800;-84
2024/03/09 17:10:11;;;;;;;5.50;3.80;;;10.50;94.40;;;;;;4952019;28;20450;-84
2024/03/09 17:12:40;;;;;;;6.90;4.07;;;10.30;94.90;;;;;;4969231;28;20432;-83
2024/03/09 17:15:06;;;;;;;6.70;4.93;;;10.20;95.30;;;;;;4967634;28;20437;-83
2024/03/09 17:17:32;;;;;;;4.80;3.77;;;10.10;95.50;;;;;;4968105;28;20421;-83
2024/03/09 17:20:07;;;;;;;4.87;3.50;;;10.00;96.10;;;;;;4968497;28;20418;-84
2024/03/09 17:22:33;;;;;;;4.33;4.03;;;9.90;96.20;;;;;;4951156;28;20182;-83
2024/03/09 17:24:58;;;;;;;6.60;3.10;;;9.80;96.50;;;;;;4950490;28;20476;-83
2024/03/09 17:27:24;;;;;;;10.17;3.93;;;9.70;97.20;;;;;;4953382;28;20193;-84
2024/03/09 17:29:51;;;;;;;13.70;4.43;;;9.60;97.30;;;;;;4949960;28;20199;-84
2024/03/09 17:32:18;;;;;;;5.73;4.90;;;9.50;97.30;;;;;;4950094;28;20202;-83
2024/03/09 17:34:45;;;;;;;8.80;7.33;;;9.50;97.30;;;;;;4964227;28;20873;-84
2024/03/09 17:37:12;;;;;;;10.67;6.17;;;9.40;97.30;;;;;;4949772;28;20426;-83
2024/03/09 17:39:38;;;;;;;4.87;4.17;;;9.30;97.30;;;;;;4944317;28;20430;-83
2024/03/09 17:42:05;;;;;;;6.70;4.10;;;9.20;97.30;;;;;;4951552;28;20548;-82
2024/03/09 17:44:41;;;;;;;5.23;4.93;;;9.20;97.30;;;;;;4954741;28;20446;-83
2024/03/09 17:47:09;;;;;;;6.50;4.27;;;9.10;97.30;;;;;;4954589;28;20433;-83
2024/03/09 17:49:35;;;;;;;24.60;6.20;;;9.00;97.30;;;;;;4947917;28;20465;-83
2024/03/09 17:52:03;;;;;;;6.83;4.73;;;8.80;97.30;;;;;;4951367;28;20509;-85
2024/03/09 17:54:30;;;;;;;5.27;4.53;;;8.70;97.30;;;;;;4949202;28;20501;-83